NOAA-Style Climate Reports


Report for 2017 Março
                   Monthly Climatological Summary for mar 2017

Name: Estação Jardim Recreio   City: Ribeirão Preto   State: São Paulo
Elevation: 580 m  Lat: S 21° 10' 40"   Lon: W 047° 48' 36"

                  Temperature (°C), Rain (mm), Wind Speed (km/h)

                                      Heat  Cool        Avg
    Mean                              Deg   Deg         Wind                 Dom
Day Temp  High   Time   Low    Time   Days  Days  Rain  Speed High   Time    Dir
----------------------------------------------------------------------------------
 1  30,1  30,1   00:00  30,1   00:00   0,0  11,8 416,1   0,0   1,0   00:00     E
 2  29,0  30,1   00:00  22,7   21:40   0,0  10,9 391,2   0,0   1,0   00:00     E
 3  23,9  28,0   19:22  22,7   00:00   0,0   5,6   0,0   0,0  16,0   19:22     E
 4  22,7  22,7   00:00  22,7   00:00   0,0   4,4   0,0   0,0   0,0   00:00     E
 5  22,7  22,7   00:00  22,7   00:00   0,0   4,4   0,0   0,0   0,0   00:00     E
 6  22,7  22,7   00:00  22,7   00:00   0,0   4,4   0,0   0,0   0,0   00:00     E
 7  22,7  22,7   00:00  22,7   00:00   0,0   4,4   0,0   0,0   0,0   00:00     E
 8  22,7  22,7   00:00  22,7   00:00   0,0   4,4   0,0   0,0   0,0   00:00     E
 9  22,7  22,7   00:00  22,7   00:00   0,0   4,4   0,0   0,0   0,0   00:00     E
10  22,7  22,7   00:00  22,7   00:00   0,0   4,4   0,0   0,0   0,0   00:00     E
11  22,7  22,7   00:00  22,7   00:00   0,0   4,4   0,0   0,0   0,0   00:00     E
12  22,7  22,7   00:00  22,7   00:00   0,0   4,4   0,0   0,0   0,0   00:00     E
13  22,7  22,7   00:00  22,7   00:00   0,0   4,4   0,0   0,0   0,0   00:00     E
14  22,7  22,7   00:00  22,7   00:00   0,0   4,4   0,0   0,0   0,0   00:00     E
16  27,0  31,4   11:20  22,7   00:00   0,0  14,4 369,3   0,0  11,0   01:15    SE
17  31,4  31,4   00:00  31,4   00:00   0,0  13,1 369,3   0,0   1,0   00:00     E
18  31,4  31,4   00:00  31,4   00:00   0,0  13,1 369,3   0,0   1,0   00:00     E
19  30,0  31,4   00:00  27,1   16:53   0,0  13,2 357,6   1,5   6,0   16:53   SSW
20  28,2  28,2   00:00  28,2   00:00   0,0   9,9 357,6   5,0   6,0   00:00   SSW
21  28,2  28,2   00:00  28,2   00:00   0,0   9,9 357,6   5,0   6,0   00:00   SSW
22  28,2  28,2   00:00  28,2   00:00   0,0   9,9 357,6   5,0   6,0   00:00   SSW
23  28,1  28,2   00:00  20,1   23:35   0,0   9,8 319,5   5,0   6,0   00:00   SSW
24  18,1  22,6   04:34  14,5   20:36   1,2   1,0   0,0   0,1   7,0   03:16   SSW
25  17,9  21,8   02:01  14,7   19:34   1,3   0,9   0,6   0,0   3,0   01:35     E
26  17,8  26,4   04:53  10,4   20:16   2,7   2,2   0,0   1,0  18,0   05:32     S
27  17,7  27,4   05:22   8,9   20:32   3,1   2,5   0,0   0,2  13,0   05:35   ESE
28  20,1  30,6   05:25  12,0   20:09   1,7   3,6   0,0   0,1   5,0   05:12     S
29  22,2  31,8   05:15  13,8   20:38   0,8   4,7   0,0   0,3  11,0   03:31   SSW
30  28,1  31,0   10:53  23,6   20:43   0,0   6,4   0,0   0,2  11,0   10:27    SE
----------------------------------------------------------------------------------
    24,4  31,8    29     8,9    27    10,8 191,33665,7   1,0  18,0    26     SSW

Max >=  27,0: 15
Max <=   0,0:  0
Min <=   0,0:  0
Min <= -18,0:  0
Max Rain: 416,1 on day 1
Days of Rain: 11 (>= 0,2 mm)  10 (>= 2,0 mm)  10 (>= 20,0 mm)
Heat Base: 18,3  Cool Base: 18,3  Method: Integration